Astoria, South Dakota
Current Conditions -  °F | °C
As of 1:34 AM on Thursday 23 Oct 2014 (Local Time) from KCNB Reporting Station
Clear Clear  
Wind Chill: 52°   Ceiling: Unl
Heat Index: 52°   Visibility: 10mi
Dew Point: 50°   Wind: 6mph
Humidity: 94%   Direction: 240°WSW
Pressure: 29.99"   Gusts: NA
Location:  44.56°N, 96.55°W
Report Text: KCNB 230634Z AUTO 24005KT 10SM CLR 11/10 A2999 RMK AO2 T01090100
Loading
Personal Weather Stations






























Interactive Weather Map
Tropical Storm Tracking
New forecast layout! Learn more

10-Day Weather Forecast

Advertisements
Track Severe Weather on mobile